Long Lake, NY

7:20 AM EST on November 24, 2014 (GMT -0500)
Wheeler-Sack Army Air Field | Change Station
CLOSE
Current Station
Airport
Location: Fort Drum,
Elevation: 679 ft
Nearby Weather Stations
Active Advisory: Wind Advisory Active Notice: Public Information Statement

Elev 679 ft 44.06 °N, 75.72 °W | Updated 22 minutes ago

Overcast
Overcast
50 °F
Feels Like 50 °F
N
21
Wind Variable Wind from SSE
Gusts 26 mph

Today
High -- | Low -- °F
--% Chance of Precip.
Yesterday
High -- | Low -- °F
Precip. -- in
7:04 AM 4:24 PM
Waxing Crescent, 5% visible
Pressure 29.41 in
Visibility 10.0 miles
Clouds Few 2000 ft
Scattered Clouds 3500 ft
Mostly Cloudy 9000 ft
Dew Point 48 °F
Humidity 94%
Rainfall 0.16 in
Snow Depth Not available.
UV 0 out of 12
Pollen .10 out of 12
Air Quality Not available.
Flu Activity Not available.
METAR KGTB 241158Z AUTO 15018G23KT 10SM FEW020 SCT035 BKN090 10/09 A2940 RMK AO2 PK WND 14036/1058 SLP959 60016 70016 T01000091 10100 20071 57036

More Conditions Fewer Conditions

Pressure 29.41 in
Visibility 10.0 miles
Clouds Few 2000 ft
Scattered Clouds 3500 ft
Mostly Cloudy 9000 ft
Dew Point 48 °F
Humidity 94%
Rainfall 0.16 in
Snow Depth Not available.
UV 0 out of 12
Pollen .10 out of 12
Air Quality Not available.
Flu Activity Not available.
METAR KGTB 241158Z AUTO 15018G23KT 10SM FEW020 SCT035 BKN090 10/09 A2940 RMK AO2 PK WND 14036/1058 SLP959 60016 70016 T01000091 10100 20071 57036

More Conditions Fewer Conditions

10-Day Weather Forecast

Almanac

Astronomy

Nov. 24, 2014 Rise Set
Actual Time
Civil Twilight
Nautical Twilight
Astronomical Twilight
Moon
Length of Visible Light
Length of Day
Tomorrow will be .
, % of the Moon is Illuminated

Today's Extremes

State Highs State Lows

Community

WunderPhotos

Upload Photos

1,773,319 photos uploaded!

WunderBlogs® & News

Nearby

Air Quality

  Air Quality AQ Index Pollutant
Not available.

Snow Depth

Station Depth Elevation

Earthquake Activity

City Distance Mag. Time & Date
Minimum magnitude displayed is 2.5.

Coastal Water Temperatures

Place Temperature

Nearby Weather Stations